sensor_id;sensor_type;location;lat;lon;timestamp;temperature;humidity
19220;DHT22;9744;49.364;7.484;2024-03-22T00:00:30;11.10;99.90
19220;DHT22;9744;49.364;7.484;2024-03-22T00:02:57;11.10;99.90
19220;DHT22;9744;49.364;7.484;2024-03-22T00:05:23;11.00;99.90
19220;DHT22;9744;49.364;7.484;2024-03-22T00:07:50;10.90;99.90
19220;DHT22;9744;49.364;7.484;2024-03-22T00:10:16;10.90;99.90
19220;DHT22;9744;49.364;7.484;2024-03-22T00:12:44;10.90;99.90
19220;DHT22;9744;49.364;7.484;2024-03-22T00:15:10;10.80;99.90
19220;DHT22;9744;49.364;7.484;2024-03-22T00:17:39;10.80;99.90
19220;DHT22;9744;49.364;7.484;2024-03-22T00:20:06;10.80;99.90
19220;DHT22;9744;49.364;7.484;2024-03-22T00:22:33;10.80;99.90
19220;DHT22;9744;49.364;7.484;2024-03-22T00:25:00;10.70;99.90
19220;DHT22;9744;49.364;7.484;2024-03-22T00:27:27;10.70;99.90
19220;DHT22;9744;49.364;7.484;2024-03-22T00:29:53;10.80;99.90
19220;DHT22;9744;49.364;7.484;2024-03-22T00:32:20;10.70;99.90
19220;DHT22;9744;49.364;7.484;2024-03-22T00:34:48;10.70;99.90
19220;DHT22;9744;49.364;7.484;2024-03-22T00:37:15;10.70;99.90
19220;DHT22;9744;49.364;7.484;2024-03-22T00:39:42;10.60;99.90
19220;DHT22;9744;49.364;7.484;2024-03-22T00:42:09;10.60;99.90
19220;DHT22;9744;49.364;7.484;2024-03-22T00:44:36;10.70;99.90
19220;DHT22;9744;49.364;7.484;2024-03-22T00:47:03;10.60;99.90
19220;DHT22;9744;49.364;7.484;2024-03-22T00:49:31;10.60;99.90
19220;DHT22;9744;49.364;7.484;2024-03-22T00:52:00;10.60;99.90
19220;DHT22;9744;49.364;7.484;2024-03-22T00:54:29;10.60;99.90
19220;DHT22;9744;49.364;7.484;2024-03-22T00:56:55;10.60;99.90
19220;DHT22;9744;49.364;7.484;2024-03-22T00:59:22;10.60;99.90
19220;DHT22;9744;49.364;7.484;2024-03-22T01:01:49;10.50;99.90
19220;DHT22;9744;49.364;7.484;2024-03-22T01:04:16;10.50;99.90
19220;DHT22;9744;49.364;7.484;2024-03-22T01:06:42;10.50;99.90
19220;DHT22;9744;49.364;7.484;2024-03-22T01:09:10;10.50;99.90
19220;DHT22;9744;49.364;7.484;2024-03-22T01:11:37;10.50;99.90
19220;DHT22;9744;49.364;7.484;2024-03-22T01:14:04;10.50;99.90
19220;DHT22;9744;49.364;7.484;2024-03-22T01:16:31;10.50;99.90
19220;DHT22;9744;49.364;7.484;2024-03-22T01:18:59;10.40;99.90
19220;DHT22;9744;49.364;7.484;2024-03-22T01:21:25;10.40;99.90
19220;DHT22;9744;49.364;7.484;2024-03-22T01:23:52;10.40;99.90
19220;DHT22;9744;49.364;7.484;2024-03-22T01:26:20;10.30;99.90
19220;DHT22;9744;49.364;7.484;2024-03-22T01:28:47;10.30;99.90
19220;DHT22;9744;49.364;7.484;2024-03-22T01:31:14;10.30;99.90
19220;DHT22;9744;49.364;7.484;2024-03-22T01:33:41;10.30;99.90
19220;DHT22;9744;49.364;7.484;2024-03-22T01:36:08;10.30;99.90
19220;DHT22;9744;49.364;7.484;2024-03-22T01:38:35;10.30;99.90
19220;DHT22;9744;49.364;7.484;2024-03-22T01:41:01;10.30;99.90
19220;DHT22;9744;49.364;7.484;2024-03-22T01:43:30;10.30;99.90
19220;DHT22;9744;49.364;7.484;2024-03-22T01:45:56;10.30;99.90
19220;DHT22;9744;49.364;7.484;2024-03-22T01:48:23;10.30;99.90
19220;DHT22;9744;49.364;7.484;2024-03-22T01:50:50;10.30;99.90
19220;DHT22;9744;49.364;7.484;2024-03-22T01:53:18;10.20;99.90
19220;DHT22;9744;49.364;7.484;2024-03-22T01:55:44;10.30;99.90
19220;DHT22;9744;49.364;7.484;2024-03-22T01:58:12;10.30;99.90
19220;DHT22;9744;49.364;7.484;2024-03-22T02:00:39;10.30;99.90
19220;DHT22;9744;49.364;7.484;2024-03-22T02:03:07;10.20;99.90
19220;DHT22;9744;49.364;7.484;2024-03-22T02:05:33;10.30;99.90
19220;DHT22;9744;49.364;7.484;2024-03-22T02:08:00;10.30;99.90
19220;DHT22;9744;49.364;7.484;2024-03-22T02:10:27;10.20;99.90
19220;DHT22;9744;49.364;7.484;2024-03-22T02:12:54;10.10;99.90
19220;DHT22;9744;49.364;7.484;2024-03-22T02:15:20;10.20;99.90
19220;DHT22;9744;49.364;7.484;2024-03-22T02:17:49;10.40;99.90
19220;DHT22;9744;49.364;7.484;2024-03-22T02:20:15;10.40;99.90
19220;DHT22;9744;49.364;7.484;2024-03-22T02:22:43;10.30;99.90
19220;DHT22;9744;49.364;7.484;2024-03-22T02:25:10;10.40;99.90
19220;DHT22;9744;49.364;7.484;2024-03-22T02:27:38;10.30;99.90
19220;DHT22;9744;49.364;7.484;2024-03-22T02:30:06;10.30;99.90
19220;DHT22;9744;49.364;7.484;2024-03-22T02:32:32;10.20;99.90
19220;DHT22;9744;49.364;7.484;2024-03-22T02:35:00;10.30;99.90
19220;DHT22;9744;49.364;7.484;2024-03-22T02:37:26;10.20;99.90
19220;DHT22;9744;49.364;7.484;2024-03-22T02:39:54;10.10;99.90
19220;DHT22;9744;49.364;7.484;2024-03-22T02:42:22;10.10;99.90
19220;DHT22;9744;49.364;7.484;2024-03-22T02:44:48;10.10;99.90
19220;DHT22;9744;49.364;7.484;2024-03-22T02:47:16;10.10;99.90
19220;DHT22;9744;49.364;7.484;2024-03-22T02:49:42;10.00;99.90
19220;DHT22;9744;49.364;7.484;2024-03-22T02:52:09;10.00;99.90
19220;DHT22;9744;49.364;7.484;2024-03-22T02:54:35;9.90;99.90
19220;DHT22;9744;49.364;7.484;2024-03-22T02:57:03;9.90;99.90
19220;DHT22;9744;49.364;7.484;2024-03-22T02:59:30;9.90;99.90
19220;DHT22;9744;49.364;7.484;2024-03-22T03:01:58;9.90;99.90
19220;DHT22;9744;49.364;7.484;2024-03-22T03:04:24;9.80;99.90
19220;DHT22;9744;49.364;7.484;2024-03-22T03:06:51;9.80;99.90
19220;DHT22;9744;49.364;7.484;2024-03-22T03:09:17;9.70;99.90
19220;DHT22;9744;49.364;7.484;2024-03-22T03:11:44;9.70;99.90
19220;DHT22;9744;49.364;7.484;2024-03-22T03:14:11;9.70;99.90
19220;DHT22;9744;49.364;7.484;2024-03-22T03:16:39;9.60;99.90
19220;DHT22;9744;49.364;7.484;2024-03-22T03:19:05;9.60;99.90
19220;DHT22;9744;49.364;7.484;2024-03-22T03:21:33;9.60;99.90
19220;DHT22;9744;49.364;7.484;2024-03-22T03:23:59;9.50;99.90
19220;DHT22;9744;49.364;7.484;2024-03-22T03:26:26;9.60;99.90
19220;DHT22;9744;49.364;7.484;2024-03-22T03:28:52;9.60;99.90
19220;DHT22;9744;49.364;7.484;2024-03-22T03:31:26;9.50;99.90
19220;DHT22;9744;49.364;7.484;2024-03-22T03:33:53;9.40;99.90
19220;DHT22;9744;49.364;7.484;2024-03-22T03:36:21;9.40;99.90
19220;DHT22;9744;49.364;7.484;2024-03-22T03:38:47;9.40;99.90
19220;DHT22;9744;49.364;7.484;2024-03-22T03:41:14;9.40;99.90
19220;DHT22;9744;49.364;7.484;2024-03-22T03:43:40;9.50;99.90
19220;DHT22;9744;49.364;7.484;2024-03-22T03:46:07;9.50;99.90
19220;DHT22;9744;49.364;7.484;2024-03-22T03:48:35;9.50;99.90
19220;DHT22;9744;49.364;7.484;2024-03-22T03:51:04;9.50;99.90
19220;DHT22;9744;49.364;7.484;2024-03-22T03:53:31;9.50;99.90
19220;DHT22;9744;49.364;7.484;2024-03-22T03:55:58;9.40;99.90
19220;DHT22;9744;49.364;7.484;2024-03-22T03:58:25;9.40;99.90
19220;DHT22;9744;49.364;7.484;2024-03-22T04:00:52;9.40;99.90
19220;DHT22;9744;49.364;7.484;2024-03-22T04:03:18;9.30;99.90
19220;DHT22;9744;49.364;7.484;2024-03-22T04:05:46;9.30;99.90
19220;DHT22;9744;49.364;7.484;2024-03-22T04:08:13;9.30;99.90
19220;DHT22;9744;49.364;7.484;2024-03-22T04:10:40;9.20;99.90
19220;DHT22;9744;49.364;7.484;2024-03-22T04:13:07;9.20;99.90
19220;DHT22;9744;49.364;7.484;2024-03-22T04:15:34;9.20;99.90
19220;DHT22;9744;49.364;7.484;2024-03-22T04:18:01;9.10;99.90
19220;DHT22;9744;49.364;7.484;2024-03-22T04:20:28;9.10;99.90
19220;DHT22;9744;49.364;7.484;2024-03-22T04:22:54;9.10;99.90
19220;DHT22;9744;49.364;7.484;2024-03-22T04:25:23;9.00;99.90
19220;DHT22;9744;49.364;7.484;2024-03-22T04:27:49;9.00;99.90
19220;DHT22;9744;49.364;7.484;2024-03-22T04:30:17;9.00;99.90
19220;DHT22;9744;49.364;7.484;2024-03-22T04:32:46;9.00;99.90
19220;DHT22;9744;49.364;7.484;2024-03-22T04:35:13;9.00;99.90
19220;DHT22;9744;49.364;7.484;2024-03-22T04:37:40;9.00;99.90
19220;DHT22;9744;49.364;7.484;2024-03-22T04:40:08;9.00;99.90
19220;DHT22;9744;49.364;7.484;2024-03-22T04:42:37;9.00;99.90
19220;DHT22;9744;49.364;7.484;2024-03-22T04:45:04;9.00;99.90
19220;DHT22;9744;49.364;7.484;2024-03-22T04:47:32;9.00;99.90
19220;DHT22;9744;49.364;7.484;2024-03-22T04:49:58;9.00;99.90
19220;DHT22;9744;49.364;7.484;2024-03-22T04:52:27;8.90;99.90
19220;DHT22;9744;49.364;7.484;2024-03-22T04:54:53;8.90;99.90
19220;DHT22;9744;49.364;7.484;2024-03-22T04:57:23;8.80;99.90
19220;DHT22;9744;49.364;7.484;2024-03-22T04:59:51;8.70;99.90
19220;DHT22;9744;49.364;7.484;2024-03-22T05:02:18;8.70;99.90
19220;DHT22;9744;49.364;7.484;2024-03-22T05:04:44;8.70;99.90
19220;DHT22;9744;49.364;7.484;2024-03-22T05:07:11;8.70;99.90
19220;DHT22;9744;49.364;7.484;2024-03-22T05:09:38;8.60;99.90
19220;DHT22;9744;49.364;7.484;2024-03-22T05:12:09;8.60;99.90
19220;DHT22;9744;49.364;7.484;2024-03-22T05:14:35;8.60;99.90
19220;DHT22;9744;49.364;7.484;2024-03-22T05:17:04;8.60;99.90
19220;DHT22;9744;49.364;7.484;2024-03-22T05:19:31;8.50;99.90
19220;DHT22;9744;49.364;7.484;2024-03-22T05:21:58;8.50;99.90
19220;DHT22;9744;49.364;7.484;2024-03-22T05:24:26;8.50;99.90
19220;DHT22;9744;49.364;7.484;2024-03-22T05:26:53;8.50;99.90
19220;DHT22;9744;49.364;7.484;2024-03-22T05:29:22;8.40;99.90
19220;DHT22;9744;49.364;7.484;2024-03-22T05:31:52;8.40;99.90
19220;DHT22;9744;49.364;7.484;2024-03-22T05:34:19;8.50;99.90
19220;DHT22;9744;49.364;7.484;2024-03-22T05:36:47;8.50;99.90
19220;DHT22;9744;49.364;7.484;2024-03-22T05:39:13;8.40;99.90
19220;DHT22;9744;49.364;7.484;2024-03-22T05:41:40;8.40;99.90
19220;DHT22;9744;49.364;7.484;2024-03-22T05:44:08;8.40;99.90
19220;DHT22;9744;49.364;7.484;2024-03-22T05:46:36;8.40;99.90
19220;DHT22;9744;49.364;7.484;2024-03-22T05:49:02;8.40;99.90
19220;DHT22;9744;49.364;7.484;2024-03-22T05:51:30;8.40;99.90
19220;DHT22;9744;49.364;7.484;2024-03-22T05:53:57;8.40;99.90
19220;DHT22;9744;49.364;7.484;2024-03-22T05:56:24;8.40;99.90
19220;DHT22;9744;49.364;7.484;2024-03-22T05:58:50;8.30;99.90
19220;DHT22;9744;49.364;7.484;2024-03-22T06:01:17;8.30;99.90
19220;DHT22;9744;49.364;7.484;2024-03-22T06:03:43;8.30;99.90
19220;DHT22;9744;49.364;7.484;2024-03-22T06:06:11;8.40;99.90
19220;DHT22;9744;49.364;7.484;2024-03-22T06:08:40;8.40;99.90
19220;DHT22;9744;49.364;7.484;2024-03-22T06:11:09;8.40;99.90
19220;DHT22;9744;49.364;7.484;2024-03-22T06:13:36;8.40;99.90
19220;DHT22;9744;49.364;7.484;2024-03-22T06:16:04;8.40;99.90
19220;DHT22;9744;49.364;7.484;2024-03-22T06:18:31;8.50;99.90
19220;DHT22;9744;49.364;7.484;2024-03-22T06:20:58;8.50;99.90
19220;DHT22;9744;49.364;7.484;2024-03-22T06:23:24;8.60;99.90
19220;DHT22;9744;49.364;7.484;2024-03-22T06:25:54;8.60;99.90
19220;DHT22;9744;49.364;7.484;2024-03-22T06:28:20;8.60;99.90
19220;DHT22;9744;49.364;7.484;2024-03-22T06:30:48;8.60;99.90
19220;DHT22;9744;49.364;7.484;2024-03-22T06:33:14;8.70;99.90
19220;DHT22;9744;49.364;7.484;2024-03-22T06:35:42;8.70;99.90
19220;DHT22;9744;49.364;7.484;2024-03-22T06:38:08;8.70;99.90
19220;DHT22;9744;49.364;7.484;2024-03-22T06:40:35;8.70;99.90
19220;DHT22;9744;49.364;7.484;2024-03-22T06:43:03;8.70;99.90
19220;DHT22;9744;49.364;7.484;2024-03-22T06:45:30;8.70;99.90
19220;DHT22;9744;49.364;7.484;2024-03-22T06:47:56;8.70;99.90
19220;DHT22;9744;49.364;7.484;2024-03-22T06:50:24;8.70;99.90
19220;DHT22;9744;49.364;7.484;2024-03-22T06:52:50;8.70;99.90
19220;DHT22;9744;49.364;7.484;2024-03-22T06:55:19;8.70;99.90
19220;DHT22;9744;49.364;7.484;2024-03-22T06:57:46;8.70;99.90
19220;DHT22;9744;49.364;7.484;2024-03-22T07:00:20;8.80;99.90
19220;DHT22;9744;49.364;7.484;2024-03-22T07:02:47;8.70;99.90
19220;DHT22;9744;49.364;7.484;2024-03-22T07:05:15;8.70;99.90
19220;DHT22;9744;49.364;7.484;2024-03-22T07:07:41;8.80;99.90
19220;DHT22;9744;49.364;7.484;2024-03-22T07:10:09;8.80;99.90
19220;DHT22;9744;49.364;7.484;2024-03-22T07:12:39;8.80;99.90
19220;DHT22;9744;49.364;7.484;2024-03-22T07:15:06;8.80;99.90
19220;DHT22;9744;49.364;7.484;2024-03-22T07:17:35;8.80;99.90
19220;DHT22;9744;49.364;7.484;2024-03-22T07:20:01;8.80;99.90
19220;DHT22;9744;49.364;7.484;2024-03-22T07:22:30;8.90;99.90
19220;DHT22;9744;49.364;7.484;2024-03-22T07:24:56;8.90;99.90
19220;DHT22;9744;49.364;7.484;2024-03-22T07:27:28;9.00;99.90
19220;DHT22;9744;49.364;7.484;2024-03-22T07:29:57;9.10;99.90
19220;DHT22;9744;49.364;7.484;2024-03-22T07:32:25;9.10;99.90
19220;DHT22;9744;49.364;7.484;2024-03-22T07:34:53;9.20;99.90
19220;DHT22;9744;49.364;7.484;2024-03-22T07:37:22;9.20;99.90
19220;DHT22;9744;49.364;7.484;2024-03-22T07:39:49;9.30;99.90
19220;DHT22;9744;49.364;7.484;2024-03-22T07:42:16;9.30;99.90
19220;DHT22;9744;49.364;7.484;2024-03-22T07:44:42;9.40;99.90
19220;DHT22;9744;49.364;7.484;2024-03-22T07:47:13;9.40;99.90
19220;DHT22;9744;49.364;7.484;2024-03-22T07:49:39;9.40;99.90
19220;DHT22;9744;49.364;7.484;2024-03-22T07:52:08;9.40;99.90
19220;DHT22;9744;49.364;7.484;2024-03-22T07:54:34;9.40;99.90
19220;DHT22;9744;49.364;7.484;2024-03-22T07:57:01;9.50;99.90
19220;DHT22;9744;49.364;7.484;2024-03-22T07:59:28;9.50;99.90
19220;DHT22;9744;49.364;7.484;2024-03-22T08:01:55;9.50;99.90
19220;DHT22;9744;49.364;7.484;2024-03-22T08:04:23;9.60;99.90
19220;DHT22;9744;49.364;7.484;2024-03-22T08:06:50;9.50;99.90
19220;DHT22;9744;49.364;7.484;2024-03-22T08:09:18;9.60;99.90
19220;DHT22;9744;49.364;7.484;2024-03-22T08:11:46;9.50;99.90
19220;DHT22;9744;49.364;7.484;2024-03-22T08:14:13;9.50;99.90
19220;DHT22;9744;49.364;7.484;2024-03-22T08:16:42;9.60;99.90
19220;DHT22;9744;49.364;7.484;2024-03-22T08:19:08;9.50;99.90
19220;DHT22;9744;49.364;7.484;2024-03-22T08:21:35;9.50;99.90
19220;DHT22;9744;49.364;7.484;2024-03-22T08:24:02;9.50;99.90
19220;DHT22;9744;49.364;7.484;2024-03-22T08:26:31;9.50;99.90
19220;DHT22;9744;49.364;7.484;2024-03-22T08:28:57;9.50;99.90
19220;DHT22;9744;49.364;7.484;2024-03-22T08:31:25;9.50;99.90
19220;DHT22;9744;49.364;7.484;2024-03-22T08:33:54;9.60;99.90
19220;DHT22;9744;49.364;7.484;2024-03-22T08:36:22;9.60;99.90
19220;DHT22;9744;49.364;7.484;2024-03-22T08:38:49;9.60;99.90
19220;DHT22;9744;49.364;7.484;2024-03-22T08:41:16;9.60;99.90
19220;DHT22;9744;49.364;7.484;2024-03-22T08:43:44;9.60;99.90
19220;DHT22;9744;49.364;7.484;2024-03-22T08:46:12;9.60;99.90
19220;DHT22;9744;49.364;7.484;2024-03-22T08:48:38;9.60;99.90
19220;DHT22;9744;49.364;7.484;2024-03-22T08:51:05;9.70;99.90
19220;DHT22;9744;49.364;7.484;2024-03-22T08:53:31;9.80;99.90
19220;DHT22;9744;49.364;7.484;2024-03-22T08:55:59;9.80;99.90
19220;DHT22;9744;49.364;7.484;2024-03-22T08:58:25;9.80;99.90
19220;DHT22;9744;49.364;7.484;2024-03-22T09:00:54;9.80;99.90
19220;DHT22;9744;49.364;7.484;2024-03-22T09:03:20;9.90;99.90
19220;DHT22;9744;49.364;7.484;2024-03-22T09:05:48;9.90;99.90
19220;DHT22;9744;49.364;7.484;2024-03-22T09:08:18;9.90;99.90
19220;DHT22;9744;49.364;7.484;2024-03-22T09:10:45;10.00;99.90
19220;DHT22;9744;49.364;7.484;2024-03-22T09:13:11;10.00;99.90
19220;DHT22;9744;49.364;7.484;2024-03-22T09:15:38;10.10;99.90
19220;DHT22;9744;49.364;7.484;2024-03-22T09:18:06;10.10;99.90
19220;DHT22;9744;49.364;7.484;2024-03-22T09:20:34;10.20;99.90
19220;DHT22;9744;49.364;7.484;2024-03-22T09:23:00;10.20;99.90
19220;DHT22;9744;49.364;7.484;2024-03-22T09:25:27;10.40;99.90
19220;DHT22;9744;49.364;7.484;2024-03-22T09:27:53;10.50;99.90
19220;DHT22;9744;49.364;7.484;2024-03-22T09:30:20;10.50;99.90
19220;DHT22;9744;49.364;7.484;2024-03-22T09:32:47;10.60;99.90
19220;DHT22;9744;49.364;7.484;2024-03-22T09:35:16;10.70;99.90
19220;DHT22;9744;49.364;7.484;2024-03-22T09:37:43;10.70;99.90
19220;DHT22;9744;49.364;7.484;2024-03-22T09:40:12;10.80;99.90
19220;DHT22;9744;49.364;7.484;2024-03-22T09:42:42;10.90;99.90
19220;DHT22;9744;49.364;7.484;2024-03-22T09:45:11;11.00;99.90
19220;DHT22;9744;49.364;7.484;2024-03-22T09:47:37;11.10;99.90
19220;DHT22;9744;49.364;7.484;2024-03-22T09:50:07;11.20;99.90
19220;DHT22;9744;49.364;7.484;2024-03-22T09:52:37;11.30;99.90
19220;DHT22;9744;49.364;7.484;2024-03-22T09:55:06;11.40;99.90
19220;DHT22;9744;49.364;7.484;2024-03-22T09:57:34;11.50;99.90
19220;DHT22;9744;49.364;7.484;2024-03-22T10:00:07;11.50;99.90
19220;DHT22;9744;49.364;7.484;2024-03-22T10:02:42;11.50;99.90
19220;DHT22;9744;49.364;7.484;2024-03-22T10:05:10;11.70;99.90
19220;DHT22;9744;49.364;7.484;2024-03-22T10:07:37;11.80;99.90
19220;DHT22;9744;49.364;7.484;2024-03-22T10:10:05;11.80;99.90
19220;DHT22;9744;49.364;7.484;2024-03-22T10:12:33;12.00;99.90
19220;DHT22;9744;49.364;7.484;2024-03-22T10:15:00;12.20;99.90
19220;DHT22;9744;49.364;7.484;2024-03-22T10:17:27;12.40;99.90
19220;DHT22;9744;49.364;7.484;2024-03-22T10:19:54;12.50;99.90
19220;DHT22;9744;49.364;7.484;2024-03-22T10:22:20;12.60;99.90
19220;DHT22;9744;49.364;7.484;2024-03-22T10:24:49;12.70;99.90
19220;DHT22;9744;49.364;7.484;2024-03-22T10:27:15;12.80;99.90
19220;DHT22;9744;49.364;7.484;2024-03-22T10:29:44;13.00;99.90
19220;DHT22;9744;49.364;7.484;2024-03-22T10:32:13;13.10;99.90
19220;DHT22;9744;49.364;7.484;2024-03-22T10:34:42;13.20;99.90
19220;DHT22;9744;49.364;7.484;2024-03-22T10:37:12;13.20;99.90
19220;DHT22;9744;49.364;7.484;2024-03-22T10:39:42;13.20;99.90
19220;DHT22;9744;49.364;7.484;2024-03-22T10:42:12;13.40;99.90
19220;DHT22;9744;49.364;7.484;2024-03-22T10:44:41;13.60;99.90
19220;DHT22;9744;49.364;7.484;2024-03-22T10:47:09;13.80;99.90
19220;DHT22;9744;49.364;7.484;2024-03-22T10:49:38;14.10;99.90
19220;DHT22;9744;49.364;7.484;2024-03-22T10:52:12;14.40;99.90
19220;DHT22;9744;49.364;7.484;2024-03-22T10:54:43;14.60;99.90
19220;DHT22;9744;49.364;7.484;2024-03-22T10:57:14;14.70;99.90
19220;DHT22;9744;49.364;7.484;2024-03-22T10:59:43;14.70;99.90
19220;DHT22;9744;49.364;7.484;2024-03-22T11:02:11;14.70;99.90
19220;DHT22;9744;49.364;7.484;2024-03-22T11:04:38;14.80;99.90
19220;DHT22;9744;49.364;7.484;2024-03-22T11:07:05;14.90;99.90
19220;DHT22;9744;49.364;7.484;2024-03-22T11:09:33;14.90;99.90
19220;DHT22;9744;49.364;7.484;2024-03-22T11:11:59;15.10;99.90
19220;DHT22;9744;49.364;7.484;2024-03-22T11:14:28;15.30;99.90
19220;DHT22;9744;49.364;7.484;2024-03-22T11:16:55;15.40;99.90
19220;DHT22;9744;49.364;7.484;2024-03-22T11:19:22;15.50;99.90
19220;DHT22;9744;49.364;7.484;2024-03-22T11:21:48;15.70;99.90
19220;DHT22;9744;49.364;7.484;2024-03-22T11:24:16;15.80;99.90
19220;DHT22;9744;49.364;7.484;2024-03-22T11:26:42;16.10;99.90
19220;DHT22;9744;49.364;7.484;2024-03-22T11:29:11;16.10;99.90
19220;DHT22;9744;49.364;7.484;2024-03-22T11:31:38;16.10;99.90
19220;DHT22;9744;49.364;7.484;2024-03-22T11:34:06;16.20;99.90
19220;DHT22;9744;49.364;7.484;2024-03-22T11:36:32;16.10;99.90
19220;DHT22;9744;49.364;7.484;2024-03-22T11:38:59;16.00;99.90
19220;DHT22;9744;49.364;7.484;2024-03-22T11:41:27;16.00;99.90
19220;DHT22;9744;49.364;7.484;2024-03-22T11:43:56;16.00;99.90
19220;DHT22;9744;49.364;7.484;2024-03-22T11:46:24;16.20;99.90
19220;DHT22;9744;49.364;7.484;2024-03-22T11:48:54;16.40;99.90
19220;DHT22;9744;49.364;7.484;2024-03-22T11:51:21;16.50;99.90
19220;DHT22;9744;49.364;7.484;2024-03-22T11:53:52;16.60;99.90
19220;DHT22;9744;49.364;7.484;2024-03-22T11:56:20;16.50;99.90
19220;DHT22;9744;49.364;7.484;2024-03-22T11:58:47;16.60;99.90
19220;DHT22;9744;49.364;7.484;2024-03-22T12:01:14;16.50;99.90
19220;DHT22;9744;49.364;7.484;2024-03-22T12:03:43;16.60;99.90
19220;DHT22;9744;49.364;7.484;2024-03-22T12:06:11;16.70;99.90
19220;DHT22;9744;49.364;7.484;2024-03-22T12:08:43;16.90;99.90
19220;DHT22;9744;49.364;7.484;2024-03-22T12:11:10;16.90;99.90
19220;DHT22;9744;49.364;7.484;2024-03-22T12:13:38;17.10;99.90
19220;DHT22;9744;49.364;7.484;2024-03-22T12:16:05;17.10;99.90
19220;DHT22;9744;49.364;7.484;2024-03-22T12:18:33;17.00;99.90
19220;DHT22;9744;49.364;7.484;2024-03-22T12:21:01;17.10;99.90
19220;DHT22;9744;49.364;7.484;2024-03-22T12:23:30;17.20;99.90
19220;DHT22;9744;49.364;7.484;2024-03-22T12:25:58;17.40;99.90
19220;DHT22;9744;49.364;7.484;2024-03-22T12:28:26;17.30;99.90
19220;DHT22;9744;49.364;7.484;2024-03-22T12:30:52;17.20;99.90
19220;DHT22;9744;49.364;7.484;2024-03-22T12:33:19;17.00;99.90
19220;DHT22;9744;49.364;7.484;2024-03-22T12:35:45;17.00;99.90
19220;DHT22;9744;49.364;7.484;2024-03-22T12:38:14;17.00;99.90
19220;DHT22;9744;49.364;7.484;2024-03-22T12:40:41;17.00;99.90
19220;DHT22;9744;49.364;7.484;2024-03-22T12:43:09;17.10;99.90
19220;DHT22;9744;49.364;7.484;2024-03-22T12:45:36;17.10;99.90
19220;DHT22;9744;49.364;7.484;2024-03-22T12:48:05;17.10;99.90
19220;DHT22;9744;49.364;7.484;2024-03-22T12:50:31;17.10;99.90
19220;DHT22;9744;49.364;7.484;2024-03-22T12:52:59;16.90;99.90
19220;DHT22;9744;49.364;7.484;2024-03-22T12:55:26;16.60;99.90
19220;DHT22;9744;49.364;7.484;2024-03-22T12:57:56;16.60;99.90
19220;DHT22;9744;49.364;7.484;2024-03-22T13:00:22;16.50;99.90
19220;DHT22;9744;49.364;7.484;2024-03-22T13:02:50;16.60;99.90
19220;DHT22;9744;49.364;7.484;2024-03-22T13:05:16;16.70;99.90
19220;DHT22;9744;49.364;7.484;2024-03-22T13:07:43;16.60;99.90
19220;DHT22;9744;49.364;7.484;2024-03-22T13:10:09;16.30;99.90
19220;DHT22;9744;49.364;7.484;2024-03-22T13:12:37;16.20;99.90
19220;DHT22;9744;49.364;7.484;2024-03-22T13:15:05;16.40;99.90
19220;DHT22;9744;49.364;7.484;2024-03-22T13:17:33;16.40;99.90
19220;DHT22;9744;49.364;7.484;2024-03-22T13:19:59;16.30;99.90
19220;DHT22;9744;49.364;7.484;2024-03-22T13:22:27;16.20;99.90
19220;DHT22;9744;49.364;7.484;2024-03-22T13:24:55;16.20;99.90
19220;DHT22;9744;49.364;7.484;2024-03-22T13:27:22;16.20;99.90
19220;DHT22;9744;49.364;7.484;2024-03-22T13:29:52;16.20;99.90
19220;DHT22;9744;49.364;7.484;2024-03-22T13:32:19;16.20;99.90
19220;DHT22;9744;49.364;7.484;2024-03-22T13:34:47;16.20;99.90
19220;DHT22;9744;49.364;7.484;2024-03-22T13:37:13;16.20;99.90
19220;DHT22;9744;49.364;7.484;2024-03-22T13:39:40;16.10;99.90
19220;DHT22;9744;49.364;7.484;2024-03-22T13:42:06;16.10;99.90
19220;DHT22;9744;49.364;7.484;2024-03-22T13:44:35;15.90;99.90
19220;DHT22;9744;49.364;7.484;2024-03-22T13:47:01;15.80;99.90
19220;DHT22;9744;49.364;7.484;2024-03-22T13:49:32;15.80;99.90
19220;DHT22;9744;49.364;7.484;2024-03-22T13:51:58;15.90;99.90
19220;DHT22;9744;49.364;7.484;2024-03-22T13:54:27;15.90;99.90
19220;DHT22;9744;49.364;7.484;2024-03-22T13:56:53;15.90;99.90
19220;DHT22;9744;49.364;7.484;2024-03-22T13:59:20;16.00;99.90
19220;DHT22;9744;49.364;7.484;2024-03-22T14:01:47;16.00;99.90
19220;DHT22;9744;49.364;7.484;2024-03-22T14:04:16;15.90;99.90
19220;DHT22;9744;49.364;7.484;2024-03-22T14:06:44;15.90;99.90
19220;DHT22;9744;49.364;7.484;2024-03-22T14:09:11;16.00;99.90
19220;DHT22;9744;49.364;7.484;2024-03-22T14:11:41;16.00;99.90
19220;DHT22;9744;49.364;7.484;2024-03-22T14:14:09;15.90;99.90
19220;DHT22;9744;49.364;7.484;2024-03-22T14:16:41;15.80;99.90
19220;DHT22;9744;49.364;7.484;2024-03-22T14:19:08;15.80;99.90
19220;DHT22;9744;49.364;7.484;2024-03-22T14:21:36;15.90;99.90
19220;DHT22;9744;49.364;7.484;2024-03-22T14:24:06;15.90;99.90
19220;DHT22;9744;49.364;7.484;2024-03-22T14:26:33;16.00;99.90
19220;DHT22;9744;49.364;7.484;2024-03-22T14:28:59;16.00;99.90
19220;DHT22;9744;49.364;7.484;2024-03-22T14:31:27;16.00;99.90
19220;DHT22;9744;49.364;7.484;2024-03-22T14:33:54;16.10;99.90
19220;DHT22;9744;49.364;7.484;2024-03-22T14:36:21;16.10;99.90
19220;DHT22;9744;49.364;7.484;2024-03-22T14:38:47;16.00;99.90
19220;DHT22;9744;49.364;7.484;2024-03-22T14:41:16;16.00;99.90
19220;DHT22;9744;49.364;7.484;2024-03-22T14:43:44;16.00;99.90
19220;DHT22;9744;49.364;7.484;2024-03-22T14:46:12;16.10;99.90
19220;DHT22;9744;49.364;7.484;2024-03-22T14:48:38;16.10;99.90
19220;DHT22;9744;49.364;7.484;2024-03-22T14:51:06;16.20;99.90
19220;DHT22;9744;49.364;7.484;2024-03-22T14:53:33;16.30;99.90
19220;DHT22;9744;49.364;7.484;2024-03-22T14:56:02;16.60;99.90
19220;DHT22;9744;49.364;7.484;2024-03-22T14:58:31;17.10;99.90
19220;DHT22;9744;49.364;7.484;2024-03-22T15:01:00;17.50;99.90
19220;DHT22;9744;49.364;7.484;2024-03-22T15:03:28;17.80;99.90
19220;DHT22;9744;49.364;7.484;2024-03-22T15:05:58;18.10;99.90
19220;DHT22;9744;49.364;7.484;2024-03-22T15:08:25;18.20;99.90
19220;DHT22;9744;49.364;7.484;2024-03-22T15:10:54;18.30;99.90
19220;DHT22;9744;49.364;7.484;2024-03-22T15:13:20;18.40;99.90
19220;DHT22;9744;49.364;7.484;2024-03-22T15:15:55;18.60;99.90
19220;DHT22;9744;49.364;7.484;2024-03-22T15:18:22;18.70;99.90
19220;DHT22;9744;49.364;7.484;2024-03-22T15:20:49;18.60;99.90
19220;DHT22;9744;49.364;7.484;2024-03-22T15:23:17;18.50;99.90
19220;DHT22;9744;49.364;7.484;2024-03-22T15:25:46;18.30;99.90
19220;DHT22;9744;49.364;7.484;2024-03-22T15:28:14;18.30;99.90
19220;DHT22;9744;49.364;7.484;2024-03-22T15:30:41;18.30;99.90
19220;DHT22;9744;49.364;7.484;2024-03-22T15:33:09;18.40;99.90
19220;DHT22;9744;49.364;7.484;2024-03-22T15:35:37;18.50;99.90
19220;DHT22;9744;49.364;7.484;2024-03-22T15:38:04;18.40;99.90
19220;DHT22;9744;49.364;7.484;2024-03-22T15:40:31;18.00;99.90
19220;DHT22;9744;49.364;7.484;2024-03-22T15:42:58;17.70;99.90
19220;DHT22;9744;49.364;7.484;2024-03-22T15:45:25;17.40;99.90
19220;DHT22;9744;49.364;7.484;2024-03-22T15:47:52;17.40;99.90
19220;DHT22;9744;49.364;7.484;2024-03-22T15:50:21;17.30;99.90
19220;DHT22;9744;49.364;7.484;2024-03-22T15:52:47;17.40;99.90